Time;durP1;ratioP1;P1;durP2;ratioP2;P2;SDS_P1;SDS_P2;PMS_P1;PMS_P2;Temp;Humidity;BMP_temperature;BMP_pressure;BME280_temperature;BME280_humidity;BME280_pressure;Samples;Min_cycle;Max_cycle;Signal;HPM_P1;HPM_P2
2021/03/21 00:00:21;;;;;;;4.80;3.50;;;;;;;1.92;54.80;98628.56;5045508;28;20257;-75
2021/03/21 00:02:47;;;;;;;6.13;3.83;;;;;;;1.99;53.40;98622.56;5051480;28;20300;-76
2021/03/21 00:05:13;;;;;;;6.47;3.50;;;;;;;2.04;52.25;98618.31;5048607;28;20914;-76
2021/03/21 00:07:39;;;;;;;6.63;4.10;;;;;;;2.12;51.96;98626.91;5030396;28;20747;-75
2021/03/21 00:10:07;;;;;;;5.57;3.70;;;;;;;2.13;51.58;98614.88;5030941;28;20238;-76
2021/03/21 00:12:33;;;;;;;6.30;4.00;;;;;;;2.09;52.03;98619.16;5030749;28;20726;-75
2021/03/21 00:14:59;;;;;;;7.27;4.00;;;;;;;2.11;51.93;98625.19;5030326;28;20222;-75
2021/03/21 00:17:26;;;;;;;5.50;3.70;;;;;;;2.17;51.65;98608.03;5031657;28;20692;-75
2021/03/21 00:19:52;;;;;;;6.93;4.47;;;;;;;2.25;51.43;98603.78;5027006;28;20223;-76
2021/03/21 00:22:18;;;;;;;10.10;5.90;;;;;;;2.33;51.02;98603.78;5048621;28;20245;-75
2021/03/21 00:24:44;;;;;;;9.07;4.70;;;;;;;2.39;50.41;98594.38;5052012;28;20214;-77
2021/03/21 00:27:11;;;;;;;7.03;5.20;;;;;;;2.42;50.28;98593.50;5033444;28;20943;-77
2021/03/21 00:29:37;;;;;;;6.10;4.43;;;;;;;2.40;50.06;98596.06;5030237;28;20758;-75
2021/03/21 00:32:04;;;;;;;6.87;4.63;;;;;;;2.43;50.17;98585.78;5046868;28;20256;-77
2021/03/21 00:34:31;;;;;;;6.67;4.03;;;;;;;2.44;50.13;98577.19;5051441;28;20225;-76
2021/03/21 00:36:57;;;;;;;5.73;3.90;;;;;;;2.47;50.14;98582.34;5035951;28;20256;-75
2021/03/21 00:39:23;;;;;;;5.53;4.13;;;;;;;2.48;49.98;98573.78;5030644;28;20225;-75
2021/03/21 00:41:50;;;;;;;6.13;4.20;;;;;;;2.40;50.03;98575.47;5044647;28;20856;-77
2021/03/21 00:44:16;;;;;;;8.90;3.67;;;;;;;2.33;50.21;98580.59;5051262;28;20339;-76
2021/03/21 00:46:42;;;;;;;11.43;7.57;;;;;;;2.23;50.29;98572.88;5033463;28;20384;-77
2021/03/21 00:49:08;;;;;;;7.07;4.40;;;;;;;2.34;50.29;98564.31;5027293;28;20234;-74
2021/03/21 00:51:35;;;;;;;5.03;3.80;;;;;;;2.43;49.97;98564.34;5037068;28;20244;-78
2021/03/21 00:54:03;;;;;;;5.90;3.97;;;;;;;2.48;49.96;98552.28;5048382;28;20238;-75
2021/03/21 00:56:32;;;;;;;5.83;3.87;;;;;;;2.57;49.83;98556.59;5037869;28;20239;-76
2021/03/21 01:00:27;;;;;;;7.00;3.63;;;;;;;2.61;49.56;98554.03;5042951;27;1497727;-78
2021/03/21 01:02:53;;;;;;;9.03;3.90;;;;;;;2.59;49.72;98548.03;5003833;28;20219;-76
2021/03/21 01:05:22;;;;;;;8.77;4.03;;;;;;;2.67;49.48;98550.59;5008072;28;20211;-75
2021/03/21 01:07:50;;;;;;;6.07;4.13;;;;;;;2.69;49.26;98546.28;5025245;28;20301;-76
2021/03/21 01:10:17;;;;;;;5.17;4.00;;;;;;;2.59;49.61;98545.44;5025498;28;20305;-75
2021/03/21 01:12:43;;;;;;;6.40;4.13;;;;;;;2.40;50.00;98541.16;5026755;28;20207;-76
2021/03/21 01:15:10;;;;;;;7.60;5.00;;;;;;;2.30;50.26;98538.56;5025945;28;20244;-76
2021/03/21 01:17:37;;;;;;;9.93;4.93;;;;;;;2.37;49.97;98533.41;5024140;28;20222;-78
2021/03/21 01:20:05;;;;;;;6.73;4.10;;;;;;;2.44;49.80;98530.81;5025636;28;20729;-76
2021/03/21 01:22:31;;;;;;;4.93;4.40;;;;;;;2.44;49.68;98522.25;5046049;28;20249;-75
2021/03/21 01:24:58;;;;;;;6.13;4.63;;;;;;;2.45;49.46;98517.09;5045341;28;20714;-77
2021/03/21 01:27:24;;;;;;;7.27;4.60;;;;;;;2.45;49.53;98526.56;5044208;28;20324;-77
2021/03/21 01:32:08;;;;;;;5.53;4.30;;;;;;;2.36;49.61;98517.13;5077626;27;20545;-78
2021/03/21 01:34:34;;;;;;;6.07;4.83;;;;;;;2.40;49.81;98507.66;5067007;28;20213;-76
2021/03/21 01:37:01;;;;;;;6.80;5.20;;;;;;;2.35;49.92;98504.22;5059207;28;20918;-75
2021/03/21 01:39:27;;;;;;;6.13;4.13;;;;;;;2.36;50.00;98503.38;5066518;28;20231;-74
2021/03/21 01:41:57;;;;;;;6.37;4.70;;;;;;;2.35;49.96;98499.94;5061233;28;20237;-75
2021/03/21 01:44:23;;;;;;;6.97;4.33;;;;;;;2.29;50.41;98499.94;5064316;28;20213;-76
2021/03/21 01:47:07;;;;;;;4.63;4.07;;;;;;;2.23;50.63;98490.50;5065620;28;20237;-75
2021/03/21 01:49:36;;;;;;;7.13;4.30;;;;;;;2.23;50.45;98479.38;5064625;28;20233;-74
2021/03/21 01:52:04;;;;;;;6.47;4.40;;;;;;;2.24;50.30;98475.91;5065097;28;20302;-74
2021/03/21 01:54:31;;;;;;;5.47;4.33;;;;;;;2.22;50.63;98472.47;5062598;28;20216;-75
2021/03/21 01:56:57;;;;;;;5.63;4.23;;;;;;;2.24;50.75;98463.03;5062178;28;20920;-74
2021/03/21 01:59:25;;;;;;;4.63;3.73;;;;;;;2.17;50.73;98464.78;5067752;28;20212;-75
2021/03/21 02:01:53;;;;;;;6.30;3.93;;;;;;;2.21;51.04;98452.78;5064229;28;20250;-74
2021/03/21 02:04:21;;;;;;;7.13;4.30;;;;;;;2.21;50.89;98456.19;5058887;28;20251;-76
2021/03/21 02:06:57;;;;;;;6.27;4.33;;;;;;;2.22;50.86;98449.31;5065358;28;20749;-76
2021/03/21 02:09:27;;;;;;;6.13;4.37;;;;;;;2.23;50.82;98451.06;5063160;28;20226;-74
2021/03/21 02:12:13;;;;;;;7.87;4.13;;;;;;;2.17;51.00;98443.31;5063666;28;20241;-76
2021/03/21 02:14:45;;;;;;;6.67;4.53;;;;;;;2.14;51.06;98433.03;5063760;28;20205;-74
2021/03/21 02:17:17;;;;;;;6.60;4.10;;;;;;;2.21;50.98;98439.91;5066641;28;20951;-75
2021/03/21 02:20:06;;;;;;;5.23;4.33;;;;;;;2.22;50.80;98432.16;5064392;28;21138;-74
2021/03/21 02:22:33;;;;;;;6.80;4.83;;;;;;;2.21;51.02;98429.59;5064796;28;20248;-75
2021/03/21 02:25:24;;;;;;;6.67;4.57;;;;;;;2.17;51.21;98425.28;5062778;28;20274;-73
2021/03/21 02:28:01;;;;;;;7.37;4.60;;;;;;;2.17;51.19;98426.19;5066683;28;20230;-75
2021/03/21 02:30:32;;;;;;;5.97;4.50;;;;;;;2.19;51.14;98426.16;5066820;28;20931;-74
2021/03/21 02:33:02;;;;;;;6.77;4.57;;;;;;;2.21;51.21;98425.31;5062743;28;20213;-74
2021/03/21 02:35:32;;;;;;;7.80;4.73;;;;;;;2.22;51.18;98418.44;5065983;28;20233;-74
2021/03/21 02:38:04;;;;;;;5.57;4.40;;;;;;;2.21;51.24;98419.31;5063634;28;20220;-76
2021/03/21 02:40:35;;;;;;;7.30;4.60;;;;;;;2.23;51.33;98409.88;5064617;28;20746;-75
2021/03/21 02:43:04;;;;;;;7.20;4.80;;;;;;;2.22;51.49;98410.72;5054019;28;20210;-75
2021/03/21 02:45:33;;;;;;;4.83;4.33;;;;;;;2.25;51.13;98410.72;5051734;28;20244;-75
2021/03/21 02:48:03;;;;;;;6.17;4.77;;;;;;;2.26;51.36;98402.13;5047449;28;20221;-75
2021/03/21 02:50:33;;;;;;;8.03;4.77;;;;;;;2.23;51.21;98404.72;5050858;28;20233;-74
2021/03/21 02:53:02;;;;;;;5.00;4.20;;;;;;;2.22;51.62;98403.00;5048403;28;20278;-74
2021/03/21 02:55:31;;;;;;;6.83;4.33;;;;;;;2.22;51.52;98398.69;5051368;28;20237;-74
2021/03/21 02:58:02;;;;;;;6.20;4.57;;;;;;;2.23;51.33;98403.00;5050071;28;20614;-74
2021/03/21 03:00:33;;;;;;;7.43;5.00;;;;;;;2.25;51.53;98390.13;5049219;28;20242;-75
2021/03/21 03:03:01;;;;;;;5.57;4.43;;;;;;;2.29;51.61;98384.09;5048997;28;20248;-75
2021/03/21 03:05:28;;;;;;;6.60;4.03;;;;;;;2.32;51.65;98386.69;5047345;28;20245;-77
2021/03/21 03:07:57;;;;;;;7.00;4.60;;;;;;;2.27;51.35;98372.97;5050594;28;20224;-77
2021/03/21 03:10:28;;;;;;;5.33;4.40;;;;;;;2.21;52.03;98370.41;5050012;28;20290;-76
2021/03/21 03:13:01;;;;;;;5.03;3.73;;;;;;;2.22;52.00;98379.81;5051486;28;20298;-76
2021/03/21 03:15:27;;;;;;;4.73;4.07;;;;;;;2.24;51.76;98378.09;5049781;28;20237;-76
2021/03/21 03:18:59;;;;;;;5.53;4.50;;;;;;;2.21;52.14;98375.56;5148667;27;21114;-75
2021/03/21 03:22:01;;;;;;;5.07;3.93;;;;;;;2.21;52.01;98378.97;5090859;27;20547;-77
2021/03/21 03:24:35;;;;;;;5.57;3.67;;;;;;;2.24;51.97;98362.66;5076777;28;20595;-76
2021/03/21 03:27:07;;;;;;;6.57;4.43;;;;;;;2.21;52.54;98362.69;5077229;28;20297;-77
2021/03/21 03:29:37;;;;;;;6.40;4.03;;;;;;;2.29;52.45;98360.94;5078786;28;20231;-77
2021/03/21 03:32:06;;;;;;;7.50;4.67;;;;;;;2.32;52.18;98355.78;5075612;28;20245;-77
2021/03/21 03:34:33;;;;;;;6.40;4.00;;;;;;;2.34;52.03;98353.22;5076170;28;20246;-77
2021/03/21 03:37:00;;;;;;;5.20;3.97;;;;;;;2.35;51.98;98350.63;5074983;28;20240;-77
2021/03/21 03:39:26;;;;;;;6.27;4.03;;;;;;;2.32;52.22;98345.50;5074898;28;20243;-77
2021/03/21 03:41:58;;;;;;;5.93;4.37;;;;;;;2.27;52.53;98337.78;5077290;28;20244;-77
2021/03/21 03:44:30;;;;;;;7.20;5.07;;;;;;;2.23;52.15;98330.09;5076772;28;20761;-76
2021/03/21 03:47:04;;;;;;;5.97;4.53;;;;;;;2.24;52.27;98334.34;5077028;28;20240;-78
2021/03/21 03:49:49;;;;;;;5.60;4.20;;;;;;;2.24;52.17;98331.78;5077860;28;20250;-76
2021/03/21 03:52:31;;;;;;;4.87;3.80;;;;;;;2.27;52.51;98329.19;5077297;28;20244;-76
2021/03/21 03:55:03;;;;;;;7.03;3.70;;;;;;;2.25;52.19;98329.19;5077302;28;20217;-78
2021/03/21 03:57:34;;;;;;;6.27;3.47;;;;;;;2.21;52.39;98326.66;5058674;28;20315;-76
2021/03/21 04:00:09;;;;;;;5.27;4.00;;;;;;;2.03;53.03;98328.38;5057049;28;20325;-76
2021/03/21 04:02:43;;;;;;;5.73;4.07;;;;;;;2.14;53.02;98330.94;5076146;28;20251;-77
2021/03/21 04:05:15;;;;;;;6.50;3.73;;;;;;;2.10;52.97;98324.94;5077142;28;20297;-76
2021/03/21 04:07:46;;;;;;;5.73;3.87;;;;;;;2.20;52.63;98319.78;5076666;28;20220;-77
2021/03/21 04:10:16;;;;;;;5.60;3.60;;;;;;;2.23;52.66;98317.22;5075746;28;20227;-76
2021/03/21 04:12:45;;;;;;;4.17;2.80;;;;;;;2.22;52.57;98312.91;5077175;28;20232;-76
2021/03/21 04:15:14;;;;;;;5.33;3.60;;;;;;;2.25;52.57;98318.06;5077694;28;20225;-76
2021/03/21 04:17:45;;;;;;;4.90;3.77;;;;;;;2.28;52.49;98305.19;5077135;28;20220;-77
2021/03/21 04:20:17;;;;;;;4.23;3.23;;;;;;;2.22;52.60;98305.19;5075475;28;20251;-78
2021/03/21 04:22:48;;;;;;;5.77;3.80;;;;;;;2.25;52.84;98300.03;5075889;28;20294;-76
2021/03/21 04:25:17;;;;;;;4.63;4.13;;;;;;;2.28;52.56;98308.63;5075866;28;20787;-77
2021/03/21 04:27:47;;;;;;;6.70;4.03;;;;;;;2.28;52.43;98290.59;5076471;28;20212;-78
2021/03/21 04:30:16;;;;;;;5.20;3.83;;;;;;;2.32;52.49;98294.00;5075893;28;20209;-76
2021/03/21 04:32:44;;;;;;;6.23;3.53;;;;;;;2.34;52.57;98283.72;5064212;28;20249;-77
2021/03/21 04:35:12;;;;;;;5.03;4.00;;;;;;;2.36;52.47;98284.56;5061433;28;20890;-77
2021/03/21 04:37:39;;;;;;;6.10;3.97;;;;;;;2.35;52.61;98285.41;5063934;28;20217;-75
2021/03/21 04:40:08;;;;;;;4.43;3.87;;;;;;;2.37;52.45;98282.00;5063438;28;20237;-76
2021/03/21 04:42:41;;;;;;;4.70;3.33;;;;;;;2.38;52.53;98280.25;5032380;28;20242;-77
2021/03/21 04:45:11;;;;;;;4.53;3.53;;;;;;;2.36;52.33;98275.13;5029089;28;20225;-77
2021/03/21 04:47:41;;;;;;;5.07;3.70;;;;;;;2.36;52.35;98279.41;5042671;28;20276;-79
2021/03/21 04:50:08;;;;;;;4.43;3.50;;;;;;;2.34;52.41;98282.00;5042060;28;20210;-77
2021/03/21 04:52:41;;;;;;;3.60;3.07;;;;;;;2.31;52.48;98276.84;5042495;28;20242;-76
2021/03/21 04:55:13;;;;;;;4.57;3.37;;;;;;;2.18;52.88;98280.31;5043060;28;20214;-77
2021/03/21 04:57:41;;;;;;;4.53;3.33;;;;;;;2.15;53.09;98283.78;5059437;28;20224;-76
2021/03/21 05:00:09;;;;;;;5.33;3.17;;;;;;;2.18;52.85;98285.47;5061583;28;20230;-75
2021/03/21 05:02:36;;;;;;;4.73;3.33;;;;;;;2.26;52.81;98294.00;5059737;28;20249;-77
2021/03/21 05:05:06;;;;;;;5.90;3.50;;;;;;;2.20;52.80;98296.63;5057079;28;20213;-76
2021/03/21 05:07:37;;;;;;;5.07;3.20;;;;;;;2.29;52.57;98288.88;5041719;28;20637;-76
2021/03/21 05:10:09;;;;;;;4.67;3.53;;;;;;;2.34;52.32;98289.72;5042141;28;20213;-77
2021/03/21 05:12:39;;;;;;;4.27;3.27;;;;;;;2.37;52.34;98282.00;5041414;28;21082;-77
2021/03/21 05:15:12;;;;;;;4.30;2.80;;;;;;;2.38;52.11;98286.25;5040719;28;20218;-76
2021/03/21 05:17:49;;;;;;;4.80;3.27;;;;;;;2.35;52.10;98283.69;5042864;28;20671;-76
2021/03/21 05:20:18;;;;;;;5.73;3.30;;;;;;;2.36;51.75;98285.41;5040997;28;20380;-76
2021/03/21 05:22:49;;;;;;;5.53;3.00;;;;;;;2.27;52.62;98285.44;5041103;28;20222;-77
2021/03/21 05:25:20;;;;;;;5.03;3.50;;;;;;;2.29;52.36;98281.16;5041586;28;20308;-78
2021/03/21 05:27:54;;;;;;;4.03;3.07;;;;;;;2.29;52.48;98283.72;5041500;28;20807;-76
2021/03/21 05:30:23;;;;;;;5.50;3.10;;;;;;;2.33;52.04;98275.13;5042122;28;20221;-76
2021/03/21 05:32:51;;;;;;;3.10;2.77;;;;;;;2.33;52.12;98275.13;5042004;28;20868;-77
2021/03/21 05:35:21;;;;;;;4.07;3.10;;;;;;;2.38;52.04;98278.53;5040980;28;20218;-77
2021/03/21 05:37:54;;;;;;;5.20;2.83;;;;;;;2.35;52.18;98278.53;5042051;28;20283;-77
2021/03/21 05:40:58;;;;;;;4.37;3.30;;;;;;;2.33;52.26;98269.13;5041383;28;20234;-77
2021/03/21 05:43:37;;;;;;;4.47;2.70;;;;;;;2.37;52.54;98256.25;5024716;28;20214;-78
2021/03/21 05:46:40;;;;;;;3.47;3.10;;;;;;;2.44;52.31;98252.75;5039725;28;20291;-77
2021/03/21 05:49:38;;;;;;;5.40;2.80;;;;;;;2.47;52.07;98250.19;5041203;28;20252;-78
2021/03/21 05:52:28;;;;;;;4.00;2.67;;;;;;;2.48;52.35;98249.31;5042452;28;20722;-77
2021/03/21 05:55:07;;;;;;;6.73;3.23;;;;;;;2.49;52.06;98235.56;5041313;28;20210;-78
2021/03/21 05:58:01;;;;;;;4.53;2.90;;;;;;;2.46;52.16;98230.47;5041258;28;20236;-76
2021/03/21 06:00:54;;;;;;;4.77;2.83;;;;;;;2.53;51.94;98220.13;5039231;28;20727;-77
2021/03/21 06:03:32;;;;;;;6.07;3.67;;;;;;;2.49;51.83;98212.41;5040404;28;20975;-76
2021/03/21 06:06:24;;;;;;;4.20;3.27;;;;;;;2.48;52.20;98218.44;5040499;28;20242;-76
2021/03/21 06:09:01;;;;;;;4.97;3.20;;;;;;;2.57;52.32;98222.66;5040104;28;20691;-76
2021/03/21 06:11:52;;;;;;;0.70;0.70;;;;;;;2.41;52.59;98224.47;5042399;28;20234;-77
2021/03/21 06:14:43;;;;;;;4.97;3.23;;;;;;;2.39;52.50;98238.19;5040895;28;20240;-77
2021/03/21 06:17:39;;;;;;;3.87;3.00;;;;;;;2.43;53.33;98235.63;5040193;28;20934;-79
2021/03/21 06:20:22;;;;;;;5.53;2.33;;;;;;;2.34;52.86;98230.50;5040259;28;20230;-77
2021/03/21 06:22:55;;;;;;;5.83;3.67;;;;;;;2.44;52.48;98224.44;5040291;28;20967;-77
2021/03/21 06:25:40;;;;;;;3.77;2.80;;;;;;;2.48;52.52;98228.72;5040944;28;20213;-77
2021/03/21 06:28:41;;;;;;;5.67;3.60;;;;;;;2.55;52.32;98233.84;5040633;28;20292;-77
2021/03/21 06:31:30;;;;;;;4.53;3.20;;;;;;;2.62;52.29;98235.53;5040567;28;20248;-77
2021/03/21 06:33:59;;;;;;;6.13;3.13;;;;;;;2.64;52.44;98237.22;5039257;28;20219;-77
2021/03/21 06:36:37;;;;;;;5.90;3.20;;;;;;;2.54;52.65;98233.00;5040110;28;20647;-76
2021/03/21 06:39:40;;;;;;;3.57;3.10;;;;;;;2.54;52.77;98226.97;5040911;28;20217;-76
2021/03/21 06:42:18;;;;;;;3.20;1.27;;;;;;;2.36;53.05;98233.94;5039699;28;20241;-76
2021/03/21 06:45:04;;;;;;;6.10;2.80;;;;;;;2.34;53.54;98225.34;5039154;28;20732;-77
2021/03/21 06:47:44;;;;;;;4.70;3.07;;;;;;;2.38;53.33;98224.47;5039655;28;20606;-75
2021/03/21 06:50:37;;;;;;;6.43;3.70;;;;;;;2.45;53.89;98223.59;5038924;28;20206;-81
2021/03/21 06:53:10;;;;;;;2.37;1.67;;;;;;;2.47;54.07;98216.72;5039607;28;20206;-79
2021/03/21 06:55:39;;;;;;;2.70;1.33;;;;;;;2.42;54.03;98218.44;5040937;28;20230;-79
2021/03/21 06:58:34;;;;;;;3.80;2.40;;;;;;;2.41;54.60;98206.44;5039894;28;20687;-79
2021/03/21 07:01:28;;;;;;;6.47;3.90;;;;;;;2.41;54.74;98214.19;5038168;28;20246;-77
2021/03/21 07:04:38;;;;;;;4.70;3.30;;;;;;;2.42;55.49;98205.56;5035316;28;20202;-78
2021/03/21 07:07:38;;;;;;;2.10;1.50;;;;;;;2.48;55.52;98202.97;5038914;28;20241;-77
2021/03/21 07:10:44;;;;;;;3.97;2.23;;;;;;;2.55;55.72;98198.63;5039313;28;20606;-78
2021/03/21 07:13:49;;;;;;;7.43;4.60;;;;;;;2.69;54.85;98191.69;5039692;28;20230;-77
2021/03/21 07:16:37;;;;;;;7.57;3.93;;;;;;;2.79;55.58;98184.75;5039128;28;20241;-76
2021/03/21 07:19:51;;;;;;;2.55;1.90;;;;;;;2.72;55.89;98174.50;5040264;28;20094;-80
2021/03/21 07:22:44;;;;;;;3.07;1.77;;;;;;;2.82;55.96;98171.00;5052974;28;20286;-79
2021/03/21 07:25:43;;;;;;;7.40;4.77;;;;;;;2.87;55.79;98170.09;5023597;28;20702;-79
2021/03/21 07:28:19;;;;;;;7.20;3.67;;;;;;;2.89;55.81;98163.22;5039150;28;20210;-79
2021/03/21 07:30:57;;;;;;;6.80;4.40;;;;;;;2.95;56.20;98169.19;5039074;28;20245;-77
2021/03/21 07:33:37;;;;;;;5.53;2.93;;;;;;;2.98;56.40;98161.41;5040716;28;20214;-78
2021/03/21 07:36:12;;;;;;;4.97;3.43;;;;;;;3.01;56.45;98161.41;5039402;28;20722;-77
2021/03/21 07:39:03;;;;;;;8.07;5.70;;;;;;;3.16;55.68;98153.56;5039868;28;20214;-79
2021/03/21 07:41:39;;;;;;;8.03;3.90;;;;;;;3.16;56.92;98155.25;5038170;28;20464;-78
2021/03/21 07:44:30;;;;;;;7.00;4.93;;;;;;;3.22;56.49;98150.91;5038994;28;20218;-80
2021/03/21 07:47:24;;;;;;;8.30;5.27;;;;;;;3.33;56.13;98137.94;5037785;28;20341;-78
2021/03/21 07:50:14;;;;;;;2.37;1.47;;;;;;;3.30;56.59;98152.56;5034521;28;20855;-79
2021/03/21 07:53:00;;;;;;;6.10;4.10;;;;;;;3.19;56.63;98150.94;5033781;28;20352;-78
2021/03/21 07:55:33;;;;;;;6.87;4.60;;;;;;;3.24;56.47;98148.31;5037697;28;20635;-79
2021/03/21 07:58:06;;;;;;;3.93;3.27;;;;;;;3.28;57.11;98156.00;5035999;28;20290;-78
2021/03/21 08:00:32;;;;;;;8.33;6.00;;;;;;;3.33;56.79;98152.53;5039670;28;20270;-79
2021/03/21 08:03:17;;;;;;;11.07;7.07;;;;;;;3.26;57.84;98151.75;5057035;28;20214;-77
2021/03/21 08:05:43;;;;;;;8.37;6.17;;;;;;;3.38;56.76;98141.31;5051154;28;20256;-80
2021/03/21 08:08:12;;;;;;;6.77;2.63;;;;;;;3.37;56.87;98134.44;5041823;28;20214;-77
2021/03/21 08:10:40;;;;;;;9.97;6.63;;;;;;;3.47;56.87;98135.19;5042974;28;20233;-77
2021/03/21 08:13:11;;;;;;;5.00;3.13;;;;;;;3.40;57.56;98143.84;5057170;28;20240;-79
2021/03/21 08:15:38;;;;;;;10.23;6.13;;;;;;;3.39;57.87;98137.84;5056338;28;20241;-77
2021/03/21 08:18:08;;;;;;;11.70;7.00;;;;;;;3.50;57.68;98136.91;5043305;28;20246;-80
2021/03/21 08:20:39;;;;;;;7.50;5.00;;;;;;;3.45;57.09;98130.03;5041499;28;20252;-78
2021/03/21 08:23:15;;;;;;;9.00;4.23;;;;;;;3.39;57.79;98121.53;5042195;28;20245;-79
2021/03/21 08:25:42;;;;;;;11.27;7.10;;;;;;;3.48;58.13;98118.88;5041634;28;20237;-79
2021/03/21 08:28:12;;;;;;;12.17;6.40;;;;;;;3.61;57.20;98111.84;5041885;28;20963;-78
2021/03/21 08:30:48;;;;;;;6.57;5.30;;;;;;;3.59;57.28;98109.28;5041141;28;20884;-79
2021/03/21 08:33:26;;;;;;;7.73;3.60;;;;;;;3.45;58.27;98116.31;5041783;28;20316;-79
2021/03/21 08:36:08;;;;;;;11.40;7.23;;;;;;;3.55;58.03;98111.91;5042341;28;20245;-79
2021/03/21 08:38:35;;;;;;;7.03;3.03;;;;;;;3.52;58.08;98123.09;5042517;28;20226;-77
2021/03/21 08:41:04;;;;;;;4.73;3.40;;;;;;;3.42;58.40;98124.09;5041874;28;20234;-75
2021/03/21 08:43:33;;;;;;;11.50;6.63;;;;;;;3.50;57.87;98129.16;5041629;28;20226;-76
2021/03/21 08:46:08;;;;;;;10.33;6.93;;;;;;;3.48;58.41;98139.50;5042247;28;20245;-77
2021/03/21 08:48:36;;;;;;;8.43;3.63;;;;;;;3.43;58.65;98130.94;5041113;28;20217;-76
2021/03/21 08:51:24;;;;;;;5.87;3.67;;;;;;;3.39;58.69;98140.44;5041845;28;20265;-75
2021/03/21 08:53:59;;;;;;;10.93;4.83;;;;;;;3.47;58.26;98135.19;5041691;28;20225;-77
2021/03/21 08:57:05;;;;;;;4.87;3.63;;;;;;;3.37;59.19;98143.91;5113039;27;20547;-77
2021/03/21 08:59:35;;;;;;;5.77;2.47;;;;;;;3.40;59.09;98129.25;5107086;28;20326;-77
2021/03/21 09:02:10;;;;;;;10.73;6.30;;;;;;;3.54;58.93;98136.84;5104620;28;20621;-78
2021/03/21 09:04:41;;;;;;;5.70;3.63;;;;;;;3.62;58.54;98140.22;5105789;28;20204;-77
2021/03/21 09:07:29;;;;;;;7.70;4.33;;;;;;;3.70;58.97;98137.53;5104261;27;20883;-78
2021/03/21 09:10:20;;;;;;;6.07;4.17;;;;;;;3.63;59.75;98141.91;5102324;28;20322;-80
2021/03/21 09:12:49;;;;;;;9.03;5.07;;;;;;;3.73;59.95;98136.63;5104258;28;20228;-79
2021/03/21 09:15:28;;;;;;;6.60;4.30;;;;;;;3.75;59.39;98140.94;5103846;28;20251;-78
2021/03/21 09:18:07;;;;;;;9.73;5.33;;;;;;;3.83;59.55;98133.09;5106367;28;20302;-79
2021/03/21 09:20:35;;;;;;;9.60;6.03;;;;;;;3.80;60.09;98117.63;5104539;27;20228;-78
2021/03/21 09:23:24;;;;;;;8.47;5.13;;;;;;;3.86;61.14;98131.34;5104539;27;20220;-78
2021/03/21 09:25:53;;;;;;;8.70;4.53;;;;;;;3.79;61.42;98126.25;5100925;27;20239;-77
2021/03/21 09:28:20;;;;;;;10.70;4.17;;;;;;;3.74;63.09;98121.16;5103200;27;20211;-78
2021/03/21 09:30:47;;;;;;;8.20;3.10;;;;;;;3.77;64.29;98125.44;5104803;28;20240;-78
2021/03/21 09:33:17;;;;;;;9.80;5.13;;;;;;;3.82;64.39;98118.47;5102377;28;20298;-80
2021/03/21 09:35:47;;;;;;;7.43;3.70;;;;;;;3.71;65.63;98128.91;5105156;28;20247;-78
2021/03/21 09:38:16;;;;;;;11.23;7.10;;;;;;;3.74;65.62;98121.16;5105551;28;20700;-78
2021/03/21 09:40:44;;;;;;;10.57;4.50;;;;;;;3.76;66.35;98115.97;5101205;28;20258;-78
2021/03/21 09:43:13;;;;;;;6.90;3.67;;;;;;;3.75;69.19;98109.97;5103938;28;20224;-77
2021/03/21 09:45:42;;;;;;;6.83;2.33;;;;;;;3.66;70.30;98123.81;5101586;28;20244;-79
2021/03/21 09:48:14;;;;;;;10.87;7.07;;;;;;;3.52;71.62;98128.28;5104512;28;20263;-78
2021/03/21 09:50:48;;;;;;;6.17;3.50;;;;;;;3.54;72.50;98123.94;5103604;28;20336;-78
2021/03/21 09:53:36;;;;;;;10.80;6.67;;;;;;;3.44;74.28;98123.19;5105927;28;20204;-78
2021/03/21 09:56:07;;;;;;;12.33;7.87;;;;;;;3.35;75.42;98130.19;5105581;27;20235;-77
2021/03/21 09:58:40;;;;;;;11.73;6.83;;;;;;;3.13;78.34;98117.50;5103775;28;20639;-77
2021/03/21 10:01:16;;;;;;;12.70;7.97;;;;;;;3.07;78.75;98120.13;5104683;27;20236;-78
2021/03/21 10:03:44;;;;;;;10.53;5.57;;;;;;;3.13;78.43;98122.66;5107466;28;20298;-78
2021/03/21 10:06:16;;;;;;;10.37;6.20;;;;;;;3.15;79.80;98113.16;5099591;28;20241;-78
2021/03/21 10:08:57;;;;;;;14.73;9.00;;;;;;;3.18;79.96;98118.31;5093298;28;20274;-80
2021/03/21 10:11:28;;;;;;;15.53;9.87;;;;;;;3.19;80.26;98114.00;5089527;28;20255;-78
2021/03/21 10:13:54;;;;;;;8.90;5.00;;;;;;;3.17;80.90;98111.44;5091734;28;20209;-78
2021/03/21 10:16:36;;;;;;;16.40;10.00;;;;;;;3.14;81.79;98110.59;5091161;28;20251;-80
2021/03/21 10:19:06;;;;;;;13.10;5.67;;;;;;;3.07;82.30;98112.41;5087916;28;20282;-79
2021/03/21 10:21:35;;;;;;;17.10;10.50;;;;;;;3.01;82.29;98112.44;5088682;28;20243;-79
2021/03/21 10:24:29;;;;;;;9.97;4.83;;;;;;;3.02;83.83;98116.75;5090023;28;20255;-80
2021/03/21 10:27:33;;;;;;;13.73;6.60;;;;;;;2.97;83.98;98109.03;5089300;28;20825;-79
2021/03/21 10:30:19;;;;;;;6.87;4.47;;;;;;;2.96;84.00;98115.06;5088176;28;21067;-80
2021/03/21 10:32:49;;;;;;;17.80;10.20;;;;;;;2.99;82.88;98106.44;5086958;28;20236;-80
2021/03/21 10:35:50;;;;;;;14.00;9.23;;;;;;;3.05;83.29;98107.25;5084877;28;20929;-79
2021/03/21 10:38:59;;;;;;;17.67;9.60;;;;;;;3.12;83.11;98097.72;5090198;28;20696;-80
2021/03/21 10:41:53;;;;;;;9.33;4.67;;;;;;;3.10;83.32;98089.16;5091137;28;20286;-80
2021/03/21 10:44:21;;;;;;;14.80;7.40;;;;;;;3.31;81.27;98093.25;5090298;28;20227;-80
2021/03/21 10:46:52;;;;;;;13.37;7.70;;;;;;;3.30;81.72;98085.53;5090495;28;20239;-80
2021/03/21 10:49:51;;;;;;;7.90;3.00;;;;;;;3.30;83.53;98085.53;5086637;28;20209;-81
2021/03/21 10:52:24;;;;;;;16.77;10.23;;;;;;;3.46;81.56;98075.03;5086965;28;20237;-81
2021/03/21 10:55:24;;;;;;;15.57;9.23;;;;;;;3.60;81.07;98077.47;5089963;28;20280;-82
2021/03/21 10:57:50;;;;;;;12.17;6.53;;;;;;;3.51;80.82;98075.00;5090201;28;20228;-81
2021/03/21 11:00:20;;;;;;;13.83;8.57;;;;;;;3.53;81.28;98067.22;5090770;28;20216;-80
2021/03/21 11:02:49;;;;;;;10.70;5.57;;;;;;;3.69;80.68;98062.75;5090650;28;20232;-80
2021/03/21 11:05:27;;;;;;;12.47;6.87;;;;;;;3.73;78.82;98060.13;5090640;28;20216;-80
2021/03/21 11:08:02;;;;;;;15.80;10.87;;;;;;;3.76;78.68;98054.06;5090068;28;20244;-80
2021/03/21 11:10:30;;;;;;;15.17;9.40;;;;;;;3.83;78.12;98048.78;5086321;28;20632;-80
2021/03/21 11:12:56;;;;;;;9.50;5.37;;;;;;;3.88;78.37;98053.91;5091237;28;20231;-80
2021/03/21 11:15:36;;;;;;;14.90;9.40;;;;;;;3.96;77.53;98061.53;5086779;28;20249;-81
2021/03/21 11:18:06;;;;;;;8.07;4.43;;;;;;;3.93;77.87;98056.41;5090846;28;20213;-79
2021/03/21 11:20:35;;;;;;;10.40;5.30;;;;;;;3.91;77.24;98053.84;5090539;28;20228;-81
2021/03/21 11:23:07;;;;;;;12.90;8.17;;;;;;;3.90;77.61;98052.16;5089981;28;20212;-82
2021/03/21 11:25:38;;;;;;;6.87;4.70;;;;;;;3.94;78.28;98042.63;5088195;28;20331;-80
2021/03/21 11:28:06;;;;;;;11.27;6.47;;;;;;;3.96;76.66;98046.06;5087287;28;20200;-81
2021/03/21 11:30:32;;;;;;;10.63;6.17;;;;;;;3.97;76.88;98040.88;5089659;28;20239;-81
2021/03/21 11:33:15;;;;;;;11.83;5.27;;;;;;;3.97;76.38;98035.72;5089245;28;20223;-79
2021/03/21 11:35:42;;;;;;;10.20;5.83;;;;;;;4.04;76.88;98045.09;5090845;28;20300;-79
2021/03/21 11:38:27;;;;;;;16.97;8.93;;;;;;;4.14;75.77;98042.38;5089582;28;20212;-79
2021/03/21 11:40:55;;;;;;;14.43;8.80;;;;;;;4.17;75.89;98035.44;5086799;28;20621;-82
2021/03/21 11:43:27;;;;;;;8.30;4.27;;;;;;;4.21;74.96;98037.09;5087580;28;20272;-80
2021/03/21 11:45:54;;;;;;;9.87;6.23;;;;;;;4.27;73.92;98038.72;5088879;27;20241;-79
2021/03/21 11:48:32;;;;;;;10.93;6.43;;;;;;;4.22;74.07;98030.19;5091850;28;21140;-80
2021/03/21 11:51:00;;;;;;;12.97;8.90;;;;;;;4.31;74.29;98030.03;5092095;28;20240;-81
2021/03/21 11:53:29;;;;;;;12.70;9.20;;;;;;;4.33;73.99;98025.69;5087307;28;20212;-80
2021/03/21 11:55:57;;;;;;;9.77;5.00;;;;;;;4.37;73.57;98022.19;5089819;28;20245;-81
2021/03/21 11:58:26;;;;;;;8.73;4.13;;;;;;;4.42;73.84;98019.53;5089170;28;21033;-80
2021/03/21 12:00:57;;;;;;;13.00;9.33;;;;;;;4.41;73.79;98013.53;5088719;28;20240;-80
2021/03/21 12:03:24;;;;;;;9.10;4.83;;;;;;;4.50;72.94;98009.94;5087630;28;20705;-80
2021/03/21 12:05:59;;;;;;;11.13;6.00;;;;;;;4.51;72.72;98019.41;5088002;28;20733;-83
2021/03/21 12:08:34;;;;;;;13.50;6.17;;;;;;;4.47;73.39;98014.28;5085218;28;20211;-80
2021/03/21 12:11:15;;;;;;;7.20;4.50;;;;;;;4.41;74.45;98013.53;5088535;28;20240;-82
2021/03/21 12:13:41;;;;;;;7.57;3.40;;;;;;;4.43;74.32;98016.94;5089000;28;20268;-82
2021/03/21 12:16:31;;;;;;;4.43;2.97;;;;;;;4.49;74.64;98015.16;5085964;28;20249;-83
2021/03/21 12:18:58;;;;;;;9.70;6.27;;;;;;;4.44;75.11;98015.22;5089678;28;20213;-82